createdAt,value
2023-04-25T00:00:09.924Z,96795.19
2023-04-25T00:02:44.528Z,96791.81
2023-04-25T00:05:13.539Z,96786.94
2023-04-25T00:07:43.140Z,96789.69
2023-04-25T00:10:13.075Z,96791.47
2023-04-25T00:12:42.547Z,96791.56
2023-04-25T00:15:13.639Z,96785.06
2023-04-25T00:17:41.895Z,96791.28
2023-04-25T00:20:11.308Z,96778.16
2023-04-25T00:22:39.692Z,96781.66
2023-04-25T00:25:09.283Z,96776.88
2023-04-25T00:27:38.003Z,96779.34
2023-04-25T00:30:07.579Z,96780.19
2023-04-25T00:32:37.351Z,96782.91
2023-04-25T00:35:07.012Z,96770.84
2023-04-25T00:37:35.423Z,96757.78
2023-04-25T00:40:03.816Z,96787.34
2023-04-25T00:42:33.626Z,96774.34
2023-04-25T00:45:06.374Z,96778.78
2023-04-25T00:47:39.609Z,96768.00
2023-04-25T00:50:09.608Z,96772.31
2023-04-25T00:52:38.679Z,96777.41
2023-04-25T00:55:10.255Z,96772.53
2023-04-25T00:57:39.083Z,96773.56
2023-04-25T01:00:10.730Z,96770.31
2023-04-25T01:02:40.704Z,96771.63
2023-04-25T01:05:09.752Z,96772.75
2023-04-25T01:07:38.257Z,96770.53
2023-04-25T01:10:08.308Z,96763.00
2023-04-25T01:12:36.610Z,96774.69
2023-04-25T01:15:05.539Z,96771.31
2023-04-25T01:17:34.548Z,96767.94
2023-04-25T01:20:06.213Z,96766.63
2023-04-25T01:22:36.452Z,96762.72
2023-04-25T01:25:05.144Z,96754.13
2023-04-25T01:27:34.054Z,96772.31
2023-04-25T01:30:02.969Z,96781.56
2023-04-25T01:32:39.276Z,96775.22
2023-04-25T01:35:10.638Z,96772.72
2023-04-25T01:37:40.838Z,96774.78
2023-04-25T01:40:11.656Z,96777.88
2023-04-25T01:42:43.338Z,96772.91
2023-04-25T01:45:12.920Z,96778.19
2023-04-25T01:47:42.720Z,96784.94
2023-04-25T01:50:43.463Z,96780.41
2023-04-25T01:53:15.486Z,96788.16
2023-04-25T01:55:46.295Z,96770.81
2023-04-25T01:58:17.585Z,96779.06
2023-04-25T02:01:06.311Z,96780.13
2023-04-25T02:03:42.414Z,96778.13
2023-04-25T02:06:19.263Z,96757.91
2023-04-25T02:08:50.522Z,96771.56
2023-04-25T02:11:19.102Z,96774.38
2023-04-25T02:13:55.441Z,96782.78
2023-04-25T02:16:36.910Z,96781.28
2023-04-25T02:19:05.388Z,96782.53
2023-04-25T02:21:36.767Z,96789.63
2023-04-25T02:24:08.609Z,96794.59
2023-04-25T02:26:37.389Z,96796.31
2023-04-25T02:37:57.195Z,96796.41
2023-04-25T02:40:27.194Z,96803.75
2023-04-25T02:42:56.279Z,96804.38
2023-04-25T02:45:24.611Z,96796.84
2023-04-25T02:47:52.885Z,96799.75
2023-04-25T02:50:22.438Z,96794.69
2023-04-25T02:52:50.726Z,96786.31
2023-04-25T02:55:27.024Z,96796.16
2023-04-25T02:57:57.960Z,96788.31
2023-04-25T03:00:38.292Z,96781.31
2023-04-25T03:03:06.768Z,96794.91
2023-04-25T03:05:35.147Z,96797.28
2023-04-25T03:08:04.021Z,96795.59
2023-04-25T03:10:34.268Z,96798.50
2023-04-25T03:13:08.185Z,96800.63
2023-04-25T03:15:37.148Z,96806.31
2023-04-25T03:18:06.236Z,96804.31
2023-04-25T03:20:34.582Z,96802.97
2023-04-25T03:23:03.065Z,96805.84
2023-04-25T03:25:31.880Z,96784.50
2023-04-25T03:28:00.640Z,96802.81
2023-04-25T03:30:30.402Z,96784.81
2023-04-25T03:32:58.664Z,96799.22
2023-04-25T03:35:27.057Z,96778.44
2023-04-25T03:37:56.381Z,96790.00
2023-04-25T03:40:30.501Z,96784.31
2023-04-25T03:43:21.756Z,96782.00
2023-04-25T03:45:57.421Z,96785.44
2023-04-25T03:48:27.690Z,96789.66
2023-04-25T03:50:57.006Z,96782.03
2023-04-25T03:53:26.009Z,96779.50
2023-04-25T03:56:23.879Z,96785.75
2023-04-25T03:58:59.653Z,96790.34
2023-04-25T04:01:31.840Z,96786.09
2023-04-25T04:04:00.492Z,96796.25
2023-04-25T04:06:29.825Z,96799.00
2023-04-25T04:09:12.021Z,96811.59
2023-04-25T04:11:41.662Z,96812.75
2023-04-25T04:14:11.157Z,96804.88
2023-04-25T04:16:44.234Z,96805.41
2023-04-25T04:19:12.678Z,96813.78
2023-04-25T04:21:45.684Z,96811.50
2023-04-25T04:24:14.528Z,96811.00
2023-04-25T04:26:53.217Z,96816.16
2023-04-25T04:29:32.240Z,96818.72
2023-04-25T04:32:07.154Z,96821.47
2023-04-25T04:34:36.074Z,96827.91
2023-04-25T04:37:05.282Z,96829.41
2023-04-25T04:39:33.748Z,96823.66
2023-04-25T04:42:20.886Z,96820.09
2023-04-25T04:45:10.369Z,96824.34
2023-04-25T04:47:58.833Z,96818.72
2023-04-25T04:50:50.504Z,96819.81
2023-04-25T04:53:45.139Z,96819.28
2023-04-25T04:56:32.961Z,96813.91
2023-04-25T04:59:25.542Z,96806.00
2023-04-25T05:02:12.602Z,96813.34
2023-04-25T05:05:00.653Z,96819.28
2023-04-25T05:07:39.314Z,96817.06
2023-04-25T05:10:24.082Z,96805.13
2023-04-25T05:13:10.969Z,96811.03
2023-04-25T05:16:06.116Z,96803.69
2023-04-25T05:19:00.780Z,96805.75
2023-04-25T05:21:47.516Z,96796.94
2023-04-25T05:24:34.309Z,96797.81
2023-04-25T05:27:22.588Z,96799.69
2023-04-25T05:30:18.274Z,96803.56
2023-04-25T05:33:05.967Z,96783.78
2023-04-25T05:35:34.629Z,96794.78
2023-04-25T05:38:04.502Z,96799.88
2023-04-25T05:40:52.956Z,96809.28
2023-04-25T05:43:39.970Z,96803.19
2023-04-25T05:46:27.749Z,96795.91
2023-04-25T05:49:16.988Z,96806.03
2023-04-25T05:52:05.952Z,96806.06
2023-04-25T05:54:53.780Z,96806.13
2023-04-25T05:57:23.788Z,96803.34
2023-04-25T05:59:52.310Z,96802.28
2023-04-25T06:02:23.198Z,96802.91
2023-04-25T06:04:53.317Z,96802.44
2023-04-25T06:07:24.040Z,96803.47
2023-04-25T06:09:54.554Z,96803.03
2023-04-25T06:12:22.970Z,96794.78
2023-04-25T06:14:53.722Z,96796.06
2023-04-25T06:17:22.574Z,96798.28
2023-04-25T06:19:52.488Z,96800.31
2023-04-25T06:22:20.940Z,96797.75
2023-04-25T06:24:49.295Z,96795.13
2023-04-25T06:27:19.089Z,96785.72
2023-04-25T06:29:48.152Z,96788.25
2023-04-25T06:32:16.755Z,96781.81
2023-04-25T06:34:45.141Z,96776.19
2023-04-25T06:37:13.989Z,96786.28
2023-04-25T06:39:43.589Z,96767.72
2023-04-25T06:42:14.381Z,96770.22
2023-04-25T06:44:49.963Z,96767.63
2023-04-25T06:47:20.001Z,96778.41
2023-04-25T06:49:48.566Z,96776.03
2023-04-25T06:52:19.152Z,96768.16
2023-04-25T06:54:48.651Z,96778.44
2023-04-25T06:57:40.539Z,96764.69
2023-04-25T07:00:35.976Z,96768.22
2023-04-25T07:03:04.781Z,96747.91
2023-04-25T07:05:34.073Z,96750.94
2023-04-25T07:08:02.955Z,96747.59
2023-04-25T07:10:31.452Z,96738.28
2023-04-25T07:13:02.219Z,96753.72
2023-04-25T07:15:30.892Z,96748.72
2023-04-25T07:18:02.264Z,96737.22
2023-04-25T07:20:32.203Z,96726.44
2023-04-25T07:23:01.012Z,96728.75
2023-04-25T07:25:30.746Z,96711.22
2023-04-25T07:27:59.333Z,96714.72
2023-04-25T07:30:28.726Z,96709.28
2023-04-25T07:32:57.873Z,96720.94
2023-04-25T07:35:28.163Z,96712.31
2023-04-25T07:37:56.839Z,96722.28
2023-04-25T07:40:26.386Z,96718.22
2023-04-25T07:42:59.242Z,96736.44
2023-04-25T07:45:37.592Z,96719.63
2023-04-25T07:48:07.013Z,96729.03
2023-04-25T07:50:39.802Z,96716.56
2023-04-25T07:53:08.285Z,96714.44
2023-04-25T07:55:45.191Z,96700.13
2023-04-25T07:58:22.270Z,96701.41
2023-04-25T08:00:54.519Z,96705.78
2023-04-25T08:03:49.331Z,96698.59
2023-04-25T08:06:26.994Z,96710.47
2023-04-25T08:09:24.828Z,96712.63
2023-04-25T08:11:54.659Z,96712.97
2023-04-25T08:14:30.148Z,96707.50
2023-04-25T08:16:58.526Z,96711.09
2023-04-25T08:19:27.600Z,96711.28
2023-04-25T08:21:57.972Z,96711.09
2023-04-25T08:24:33.200Z,96708.84
2023-04-25T08:27:01.804Z,96699.03
2023-04-25T08:29:30.750Z,96702.19
2023-04-25T08:31:59.544Z,96708.69
2023-04-25T08:34:33.811Z,96707.22
2023-04-25T08:37:07.196Z,96707.44
2023-04-25T08:39:57.348Z,96700.94
2023-04-25T08:42:42.407Z,96705.56
2023-04-25T08:45:11.928Z,96704.63
2023-04-25T08:47:42.710Z,96697.88
2023-04-25T08:50:11.535Z,96719.69
2023-04-25T08:52:46.533Z,96706.63
2023-04-25T08:55:15.661Z,96710.66
2023-04-25T08:57:45.024Z,96705.94
2023-04-25T09:00:15.905Z,96711.81
2023-04-25T09:02:46.163Z,96710.19
2023-04-25T09:05:16.359Z,96717.16
2023-04-25T09:07:48.556Z,96714.13
2023-04-25T09:10:18.866Z,96717.13
2023-04-25T09:12:47.170Z,96721.00
2023-04-25T09:18:12.456Z,96722.28
2023-04-25T09:23:20.692Z,96704.53
2023-04-25T09:25:50.540Z,96708.81
2023-04-25T09:28:25.093Z,96715.72
2023-04-25T09:30:58.474Z,96719.84
2023-04-25T09:33:36.088Z,96711.50
2023-04-25T09:36:07.504Z,96711.13
2023-04-25T09:39:04.709Z,96711.72
2023-04-25T09:41:40.134Z,96710.69
2023-04-25T09:44:08.450Z,96712.84
2023-04-25T09:46:39.067Z,96705.75
2023-04-25T09:49:12.666Z,96704.94
2023-04-25T09:52:02.718Z,96713.84
2023-04-25T09:54:38.519Z,96713.19
2023-04-25T09:57:19.003Z,96709.84
2023-04-25T09:59:49.328Z,96705.25
2023-04-25T10:02:20.546Z,96693.41
2023-04-25T10:04:53.812Z,96681.78
2023-04-25T10:07:32.464Z,96682.22
2023-04-25T10:10:05.189Z,96675.16
2023-04-25T10:12:35.217Z,96678.09
2023-04-25T10:15:06.205Z,96671.44
2023-04-25T10:17:35.200Z,96663.34
2023-04-25T10:20:05.119Z,96662.50
2023-04-25T10:22:37.050Z,96652.88
2023-04-25T10:25:09.726Z,96653.09
2023-04-25T10:27:38.265Z,96648.81
2023-04-25T10:30:11.272Z,96650.69
2023-04-25T10:32:39.624Z,96639.63
2023-04-25T10:35:16.539Z,96632.03
2023-04-25T10:37:59.888Z,96613.69
2023-04-25T10:40:29.708Z,96626.69
2023-04-25T10:42:58.137Z,96624.88
2023-04-25T10:45:26.456Z,96617.88
2023-04-25T10:47:57.200Z,96615.50
2023-04-25T10:50:40.205Z,96605.75
2023-04-25T10:53:17.224Z,96609.44
2023-04-25T10:55:59.321Z,96593.53
2023-04-25T10:58:28.757Z,96607.22
2023-04-25T11:00:58.025Z,96595.84
2023-04-25T11:03:26.950Z,96588.78
2023-04-25T11:05:58.515Z,96590.44
2023-04-25T11:08:49.193Z,96584.06
2023-04-25T11:11:22.664Z,96581.63
2023-04-25T11:13:53.485Z,96589.00
2023-04-25T11:16:28.392Z,96564.09
2023-04-25T11:18:59.905Z,96569.97
2023-04-25T11:21:28.995Z,96584.91
2023-04-25T11:23:58.864Z,96583.00
2023-04-25T11:26:28.620Z,96581.75
2023-04-25T11:29:01.049Z,96580.00
2023-04-25T11:31:29.404Z,96580.09
2023-04-25T11:33:59.677Z,96581.41
2023-04-25T11:36:28.739Z,96579.94
2023-04-25T11:38:57.381Z,96587.72
2023-04-25T11:41:26.630Z,96584.75
2023-04-25T11:43:56.885Z,96600.72
2023-04-25T11:46:25.146Z,96605.97
2023-04-25T11:48:53.873Z,96611.00
2023-04-25T11:51:22.425Z,96635.19
2023-04-25T11:53:51.524Z,96646.63
2023-04-25T11:56:19.857Z,96643.22
2023-04-25T11:58:59.813Z,96654.97
2023-04-25T12:01:32.063Z,96658.84
2023-04-25T12:04:14.262Z,96660.94
2023-04-25T12:06:46.218Z,96651.09
2023-04-25T12:09:15.758Z,96636.41
2023-04-25T12:11:44.945Z,96640.63
2023-04-25T12:14:15.211Z,96636.50
2023-04-25T12:16:44.894Z,96641.09
2023-04-25T12:19:16.520Z,96647.03
2023-04-25T12:21:58.119Z,96635.78
2023-04-25T12:24:29.257Z,96636.13
2023-04-25T12:27:02.322Z,96629.75
2023-04-25T12:29:48.594Z,96622.22
2023-04-25T12:32:34.488Z,96626.59
2023-04-25T12:35:02.905Z,96619.91
2023-04-25T12:37:32.046Z,96626.75
2023-04-25T12:40:00.469Z,96621.59
2023-04-25T12:42:28.901Z,96619.03
2023-04-25T12:44:57.095Z,96621.56
2023-04-25T12:47:25.333Z,96611.03
2023-04-25T12:49:54.886Z,96605.97
2023-04-25T12:52:23.106Z,96612.66
2023-04-25T12:54:51.291Z,96615.63
2023-04-25T12:57:19.389Z,96615.41
2023-04-25T12:59:47.843Z,96606.66
2023-04-25T13:02:16.328Z,96608.63
2023-04-25T13:04:44.598Z,96605.28
2023-04-25T13:07:14.186Z,96603.09
2023-04-25T13:09:42.448Z,96604.47
2023-04-25T13:12:10.706Z,96597.25
2023-04-25T13:14:39.046Z,96599.69
2023-04-25T13:17:07.516Z,96598.75
2023-04-25T13:19:35.823Z,96593.81
2023-04-25T13:22:05.397Z,96609.84
2023-04-25T13:24:35.157Z,96603.38
2023-04-25T13:27:04.333Z,96598.16
2023-04-25T13:29:32.768Z,96599.13
2023-04-25T13:32:01.447Z,96595.34
2023-04-25T13:34:30.381Z,96588.72
2023-04-25T13:36:58.508Z,96590.09
2023-04-25T13:39:27.020Z,96585.13
2023-04-25T13:41:57.223Z,96592.69
2023-04-25T13:44:25.367Z,96591.38
2023-04-25T13:46:54.040Z,96590.53
2023-04-25T13:49:24.067Z,96590.78
2023-04-25T13:51:52.178Z,96582.31
2023-04-25T13:54:20.318Z,96598.22
2023-04-25T13:56:49.900Z,96595.25
2023-04-25T13:59:19.567Z,96591.91
2023-04-25T14:01:47.863Z,96596.41
2023-04-25T14:04:16.090Z,96591.88
2023-04-25T14:06:44.404Z,96582.66
2023-04-25T14:09:13.734Z,96581.63
2023-04-25T14:11:42.072Z,96587.19
2023-04-25T14:14:10.348Z,96585.50
2023-04-25T14:16:40.413Z,96583.13
2023-04-25T14:19:08.557Z,96592.19
2023-04-25T14:21:36.858Z,96586.69
2023-04-25T14:24:06.096Z,96588.78
2023-04-25T14:26:36.782Z,96589.63
2023-04-25T14:29:05.394Z,96587.59
2023-04-25T14:31:33.612Z,96585.22
2023-04-25T14:34:04.484Z,96582.84
2023-04-25T14:36:33.139Z,96572.91
2023-04-25T14:39:02.124Z,96572.09
2023-04-25T14:41:30.393Z,96587.91
2023-04-25T14:43:58.819Z,96578.59
2023-04-25T14:46:27.241Z,96580.38
2023-04-25T14:48:56.979Z,96578.97
2023-04-25T14:51:27.543Z,96583.28
2023-04-25T14:53:56.184Z,96595.97
2023-04-25T14:56:24.378Z,96599.88
2023-04-25T14:58:52.717Z,96606.28
2023-04-25T15:01:23.070Z,96607.97
2023-04-25T15:03:53.042Z,96609.53
2023-04-25T15:06:21.979Z,96612.53
2023-04-25T15:08:51.541Z,96605.50
2023-04-25T15:11:21.373Z,96619.38
2023-04-25T15:13:49.843Z,96619.06
2023-04-25T15:16:18.229Z,96626.03
2023-04-25T15:18:46.582Z,96622.91
2023-04-25T15:21:14.841Z,96626.84
2023-04-25T15:23:43.135Z,96623.50
2023-04-25T15:26:13.045Z,96616.41
2023-04-25T15:28:42.385Z,96624.03
2023-04-25T15:31:10.722Z,96620.84
2023-04-25T15:33:39.241Z,96622.53
2023-04-25T15:36:08.587Z,96627.94
2023-04-25T15:38:37.201Z,96620.91
2023-04-25T15:41:07.190Z,96624.88
2023-04-25T15:43:38.913Z,96618.03
2023-04-25T15:46:07.296Z,96610.47
2023-04-25T15:48:36.380Z,96627.69
2023-04-25T15:51:04.889Z,96627.75
2023-04-25T15:53:33.233Z,96618.50
2023-04-25T15:56:02.170Z,96632.97
2023-04-25T15:58:30.654Z,96624.38
2023-04-25T16:01:00.634Z,96620.09
2023-04-25T16:03:29.336Z,96615.53
2023-04-25T16:05:58.065Z,96610.75
2023-04-25T16:08:26.688Z,96606.84
2023-04-25T16:10:55.025Z,96606.28
2023-04-25T16:13:23.282Z,96602.19
2023-04-25T16:15:51.775Z,96620.09
2023-04-25T16:18:21.702Z,96614.75
2023-04-25T16:20:49.975Z,96619.06
2023-04-25T16:23:18.471Z,96604.22
2023-04-25T16:25:47.011Z,96612.22
2023-04-25T16:28:15.377Z,96614.06
2023-04-25T16:30:43.787Z,96607.00
2023-04-25T16:33:12.278Z,96613.22
2023-04-25T16:35:41.917Z,96613.47
2023-04-25T16:38:10.002Z,96611.09
2023-04-25T16:40:38.314Z,96615.88
2023-04-25T16:43:06.696Z,96622.38
2023-04-25T16:45:35.023Z,96626.44
2023-04-25T16:48:03.815Z,96617.56
2023-04-25T16:50:32.339Z,96615.31
2023-04-25T16:53:02.242Z,96621.50
2023-04-25T16:55:31.627Z,96619.16
2023-04-25T16:58:00.216Z,96630.28
2023-04-25T17:00:28.510Z,96636.50
2023-04-25T17:02:56.936Z,96624.16
2023-04-25T17:05:26.855Z,96627.00
2023-04-25T17:07:55.412Z,96628.69
2023-04-25T17:10:27.153Z,96633.44
2023-04-25T17:12:55.587Z,96632.06
2023-04-25T17:15:24.613Z,96646.25
2023-04-25T17:17:53.774Z,96658.56
2023-04-25T17:20:22.754Z,96646.94
2023-04-25T17:22:51.768Z,96663.22
2023-04-25T17:25:20.472Z,96669.66
2023-04-25T17:27:50.733Z,96686.91
2023-04-25T17:30:20.161Z,96686.03
2023-04-25T17:32:48.642Z,96696.50
2023-04-25T17:35:17.884Z,96707.47
2023-04-25T17:37:47.301Z,96713.22
2023-04-25T17:40:18.528Z,96716.59
2023-04-25T17:42:47.501Z,96728.81
2023-04-25T17:45:18.318Z,96731.94
2023-04-25T17:47:47.361Z,96731.16
2023-04-25T17:50:16.933Z,96739.31
2023-04-25T17:52:51.397Z,96755.06
2023-04-25T17:55:21.469Z,96751.25
2023-04-25T17:57:50.382Z,96755.44
2023-04-25T18:00:21.209Z,96762.28
2023-04-25T18:02:52.799Z,96772.22
2023-04-25T18:05:21.804Z,96772.72
2023-04-25T18:07:51.632Z,96776.84
2023-04-25T18:10:20.371Z,96774.81
2023-04-25T18:12:50.998Z,96781.47
2023-04-25T18:15:22.614Z,96792.81
2023-04-25T18:17:51.586Z,96790.88
2023-04-25T18:20:22.635Z,96794.25
2023-04-25T18:22:51.313Z,96807.03
2023-04-25T18:25:20.198Z,96813.06
2023-04-25T18:27:50.954Z,96818.84
2023-04-25T18:30:22.816Z,96819.81
2023-04-25T18:32:53.186Z,96835.34
2023-04-25T18:35:23.318Z,96840.16
2023-04-25T18:37:52.464Z,96845.56
2023-04-25T18:40:21.350Z,96851.13
2023-04-25T18:42:52.343Z,96863.75
2023-04-25T18:45:23.189Z,96862.41
2023-04-25T18:47:54.221Z,96876.25
2023-04-25T18:50:26.959Z,96882.88
2023-04-25T18:52:57.022Z,96882.88
2023-04-25T18:55:26.248Z,96885.25
2023-04-25T18:57:54.659Z,96895.09
2023-04-25T19:00:25.181Z,96889.53
2023-04-25T19:02:56.369Z,96897.19
2023-04-25T19:05:26.190Z,96904.63
2023-04-25T19:07:55.951Z,96910.28
2023-04-25T19:10:25.564Z,96910.00
2023-04-25T19:12:55.330Z,96911.06
2023-04-25T19:15:26.899Z,96910.03
2023-04-25T19:17:56.122Z,96915.34
2023-04-25T19:20:25.599Z,96920.63
2023-04-25T19:22:55.017Z,96923.59
2023-04-25T19:25:25.347Z,96926.69
2023-04-25T19:27:55.201Z,96926.28
2023-04-25T19:30:26.493Z,96933.59
2023-04-25T19:32:57.300Z,96937.41
2023-04-25T19:35:31.225Z,96933.91
2023-04-25T19:38:00.864Z,96943.97
2023-04-25T19:40:30.900Z,96940.78
2023-04-25T19:43:00.569Z,96937.63
2023-04-25T19:45:31.866Z,96948.41
2023-04-25T19:48:03.066Z,96950.44
2023-04-25T19:50:32.211Z,96954.97
2023-04-25T19:53:01.658Z,96958.81
2023-04-25T19:55:30.799Z,96965.16
2023-04-25T19:57:59.920Z,96961.97
2023-04-25T20:00:28.842Z,96964.31
2023-04-25T20:03:02.464Z,96977.00
2023-04-25T20:05:32.826Z,96978.03
2023-04-25T20:08:01.859Z,96974.84
2023-04-25T20:10:32.281Z,96979.34
2023-04-25T20:13:01.927Z,96980.81
2023-04-25T20:15:33.269Z,96985.03
2023-04-25T20:18:03.210Z,96990.97
2023-04-25T20:20:31.734Z,96980.03
2023-04-25T20:23:00.406Z,96992.25
2023-04-25T20:25:29.810Z,96985.94
2023-04-25T20:27:59.162Z,96980.03
2023-04-25T20:30:28.944Z,96985.03
2023-04-25T20:32:57.128Z,96978.53
2023-04-25T20:35:27.435Z,96991.09
2023-04-25T20:37:55.776Z,96993.22
2023-04-25T20:40:24.079Z,96990.88
2023-04-25T20:42:52.583Z,96999.34
2023-04-25T20:45:21.278Z,97001.59
2023-04-25T20:47:50.202Z,96996.91
2023-04-25T20:50:18.692Z,97000.75
2023-04-25T20:52:49.046Z,97007.34
2023-04-25T20:55:17.436Z,97009.41
2023-04-25T20:57:45.706Z,97010.56
2023-04-25T21:00:18.880Z,97012.44
2023-04-25T21:02:47.800Z,97020.50
2023-04-25T21:05:16.580Z,97024.28
2023-04-25T21:07:45.728Z,97023.13
2023-04-25T21:10:16.124Z,97031.97
2023-04-25T21:12:48.160Z,97029.53
2023-04-25T21:15:18.273Z,97028.84
2023-04-25T21:17:47.868Z,97035.25
2023-04-25T21:20:17.908Z,97030.91
2023-04-25T21:22:51.156Z,97022.31
2023-04-25T21:25:31.035Z,97041.69
2023-04-25T21:28:02.330Z,97035.00
2023-04-25T21:30:31.140Z,97040.56
2023-04-25T21:32:59.641Z,97052.88
2023-04-25T21:35:27.888Z,97054.66
2023-04-25T21:37:56.355Z,97057.38
2023-04-25T21:40:26.544Z,97049.66
2023-04-25T21:42:54.789Z,97048.47
2023-04-25T21:45:23.203Z,97065.03
2023-04-25T21:47:51.958Z,97062.13
2023-04-25T21:50:20.738Z,97063.75
2023-04-25T21:52:49.433Z,97072.50
2023-04-25T21:55:17.828Z,97074.03
2023-04-25T21:57:47.587Z,97075.88
2023-04-25T22:00:24.781Z,97074.38
2023-04-25T22:02:53.859Z,97076.94
2023-04-25T22:05:22.844Z,97084.34
2023-04-25T22:07:52.258Z,97089.09
2023-04-25T22:10:21.691Z,97086.63
2023-04-25T22:12:51.522Z,97090.97
2023-04-25T22:15:23.613Z,97098.97
2023-04-25T22:17:52.888Z,97104.81
2023-04-25T22:20:24.394Z,97095.97
2023-04-25T22:22:53.306Z,97097.53
2023-04-25T22:25:22.250Z,97108.56
2023-04-25T22:27:52.518Z,97104.16
2023-04-25T22:30:20.762Z,97104.47
2023-04-25T22:32:48.972Z,97108.06
2023-04-25T22:35:17.485Z,97108.13
2023-04-25T22:37:46.035Z,97097.00
2023-04-25T22:40:15.614Z,97102.25
2023-04-25T22:42:44.472Z,97102.59
2023-04-25T22:45:14.873Z,97101.75
2023-04-25T22:47:43.233Z,97102.81
2023-04-25T22:50:16.813Z,97101.94
2023-04-25T22:52:45.233Z,97106.44
2023-04-25T22:55:13.598Z,97112.84
2023-04-25T22:57:42.624Z,97114.84
2023-04-25T23:00:16.538Z,97116.72
2023-04-25T23:02:47.296Z,97118.09
2023-04-25T23:05:15.754Z,97120.31
2023-04-25T23:07:45.221Z,97125.06
2023-04-25T23:10:14.392Z,97130.31
2023-04-25T23:12:42.917Z,97136.00
2023-04-25T23:15:13.221Z,97136.47
2023-04-25T23:17:42.233Z,97139.13
2023-04-25T23:20:13.490Z,97147.34
2023-04-25T23:22:42.178Z,97144.19
2023-04-25T23:25:11.953Z,97147.03
2023-04-25T23:27:40.248Z,97151.63
2023-04-25T23:30:10.294Z,97152.72
2023-04-25T23:32:39.137Z,97151.63
2023-04-25T23:35:08.433Z,97149.47
2023-04-25T23:37:38.770Z,97144.19
2023-04-25T23:40:10.044Z,97144.78
2023-04-25T23:42:38.996Z,97153.53
2023-04-25T23:45:09.119Z,97150.97
2023-04-25T23:47:37.798Z,97156.25
2023-04-25T23:50:08.109Z,97168.16
2023-04-25T23:52:38.005Z,97160.09
2023-04-25T23:55:07.197Z,97158.47
2023-04-25T23:57:35.605Z,97165.97
